Time;durP1;ratioP1;P1;durP2;ratioP2;P2;SDS_P1;SDS_P2;PMS_P1;PMS_P2;Temp;Humidity;BMP_temperature;BMP_pressure;BME280_temperature;BME280_humidity;BME280_pressure;Samples;Min_cycle;Max_cycle;Signal;HPM_P1;HPM_P2
2021/12/13 00:02:00;;;;;;;7.28;6.57;;;;;;;;;;4997797;28;20184;-82
2021/12/13 00:04:35;;;;;;;6.68;6.00;;;;;;;;;;4997845;28;20180;-82
2021/12/13 00:07:14;;;;;;;6.43;5.85;;;;;;;;;;4997498;28;20207;-82
2021/12/13 00:09:45;;;;;;;6.05;5.55;;;;;;;;;;4997084;28;20218;-82
2021/12/13 00:12:19;;;;;;;5.63;4.95;;;;;;;;;;4997496;28;20208;-82
2021/12/13 00:14:53;;;;;;;7.43;6.72;;;;;;;;;;4997252;28;20184;-82
2021/12/13 00:17:24;;;;;;;5.88;5.05;;;;;;;;;;5006987;28;20661;-82
2021/12/13 00:19:58;;;;;;;5.45;4.97;;;;;;;;;;5016888;28;20517;-82
2021/12/13 00:22:33;;;;;;;5.57;5.18;;;;;;;;;;5016782;28;20245;-82
2021/12/13 00:25:06;;;;;;;7.43;6.70;;;;;;;;;;5016529;28;20191;-82
2021/12/13 00:27:34;;;;;;;8.95;8.15;;;;;;;;;;5016197;28;20195;-83
2021/12/13 00:30:07;;;;;;;6.53;5.93;;;;;;;;;;5016675;28;20245;-82
2021/12/13 00:32:41;;;;;;;5.88;5.38;;;;;;;;;;5017033;28;20210;-82
2021/12/13 00:35:12;;;;;;;5.22;4.78;;;;;;;;;;5017126;28;20626;-82
2021/12/13 00:37:43;;;;;;;7.07;6.38;;;;;;;;;;5017642;28;20257;-82
2021/12/13 00:40:17;;;;;;;5.93;5.13;;;;;;;;;;5017625;28;20242;-83
2021/12/13 00:42:51;;;;;;;4.88;4.38;;;;;;;;;;5017404;28;20182;-83
2021/12/13 00:45:21;;;;;;;5.22;4.70;;;;;;;;;;5017418;28;20249;-82
2021/12/13 00:47:49;;;;;;;7.63;6.93;;;;;;;;;;5017224;28;20198;-82
2021/12/13 00:50:24;;;;;;;5.47;4.97;;;;;;;;;;5016994;28;20736;-82
2021/12/13 00:52:53;;;;;;;6.30;5.70;;;;;;;;;;5017274;28;20203;-82
2021/12/13 00:55:24;;;;;;;7.85;7.20;;;;;;;;;;5017044;28;20214;-83
2021/12/13 00:57:54;;;;;;;5.28;4.78;;;;;;;;;;5017040;28;20184;-82
2021/12/13 01:00:27;;;;;;;4.75;4.35;;;;;;;;;;5013368;28;20230;-83
2021/12/13 01:03:00;;;;;;;3.95;3.55;;;;;;;;;;5015290;28;20198;-83
2021/12/13 01:05:49;;;;;;;4.95;4.55;;;;;;;;;;5016298;28;20230;-82
2021/12/13 01:09:02;;;;;;;4.75;4.35;;;;;;;;;;5016344;28;20189;-82
2021/12/13 01:11:49;;;;;;;3.90;3.60;;;;;;;;;;4955212;29;20228;-83
2021/12/13 01:14:54;;;;;;;3.92;3.63;;;;;;;;;;5009728;28;20209;-83
2021/12/13 01:17:37;;;;;;;3.60;3.30;;;;;;;;;;4995678;28;20208;-83
2021/12/13 01:20:11;;;;;;;4.60;4.20;;;;;;;;;;4996011;28;20234;-82
2021/12/13 01:22:51;;;;;;;4.40;4.00;;;;;;;;;;4996779;28;20291;-82
2021/12/13 01:25:42;;;;;;;4.25;3.85;;;;;;;;;;4996377;28;20242;-83
2021/12/13 01:28:26;;;;;;;3.78;3.47;;;;;;;;;;4996613;28;20203;-83
2021/12/13 01:30:57;;;;;;;5.07;4.68;;;;;;;;;;4995550;28;20561;-82
2021/12/13 01:33:27;;;;;;;7.57;6.88;;;;;;;;;;5010599;28;20552;-83
2021/12/13 01:35:59;;;;;;;7.15;6.45;;;;;;;;;;5015669;28;20203;-83
2021/12/13 01:38:34;;;;;;;6.20;5.70;;;;;;;;;;5015768;28;20219;-83
2021/12/13 01:41:08;;;;;;;5.30;4.90;;;;;;;;;;5015754;28;20235;-83
2021/12/13 01:43:40;;;;;;;4.80;4.40;;;;;;;;;;5015735;28;20290;-83
2021/12/13 01:46:08;;;;;;;6.07;5.57;;;;;;;;;;5015725;28;20191;-84
2021/12/13 01:48:40;;;;;;;4.75;4.35;;;;;;;;;;5018414;28;20234;-83
2021/12/13 01:51:11;;;;;;;4.80;4.35;;;;;;;;;;5019191;28;20189;-84
2021/12/13 01:53:47;;;;;;;6.97;6.28;;;;;;;;;;5016398;28;20215;-84
2021/12/13 01:56:37;;;;;;;5.95;5.35;;;;;;;;;;5015837;28;20191;-83
2021/12/13 01:59:17;;;;;;;4.55;4.15;;;;;;;;;;5016181;28;20309;-83
2021/12/13 02:01:45;;;;;;;6.47;5.90;;;;;;;;;;5016328;28;20194;-84
2021/12/13 02:04:15;;;;;;;10.20;9.20;;;;;;;;;;5015993;28;20198;-83
2021/12/13 02:06:47;;;;;;;6.68;6.03;;;;;;;;;;5016537;28;20554;-83
2021/12/13 02:09:19;;;;;;;4.78;4.38;;;;;;;;;;5015775;28;20229;-83
2021/12/13 02:11:50;;;;;;;5.65;5.10;;;;;;;;;;5015553;28;20205;-83
2021/12/13 02:14:24;;;;;;;5.50;5.10;;;;;;;;;;5015923;28;20194;-84
2021/12/13 02:17:01;;;;;;;6.57;5.97;;;;;;;;;;5016077;28;20191;-83
2021/12/13 02:19:46;;;;;;;5.63;5.13;;;;;;;;;;5016025;28;20218;-83
2021/12/13 02:22:39;;;;;;;5.00;4.60;;;;;;;;;;4996016;28;20192;-83
2021/12/13 02:25:15;;;;;;;4.55;4.18;;;;;;;;;;4993283;28;20662;-83
2021/12/13 02:27:55;;;;;;;6.03;5.43;;;;;;;;;;4996105;28;20199;-83
2021/12/13 02:30:32;;;;;;;4.78;4.38;;;;;;;;;;5004973;28;20219;-83
2021/12/13 02:33:00;;;;;;;6.28;5.68;;;;;;;;;;5015245;28;20206;-83
2021/12/13 02:35:34;;;;;;;5.22;4.78;;;;;;;;;;5015894;28;20200;-83
2021/12/13 02:38:05;;;;;;;4.50;4.10;;;;;;;;;;5015228;28;20665;-82
2021/12/13 02:40:33;;;;;;;4.80;4.43;;;;;;;;;;5016170;28;20191;-83
2021/12/13 02:43:01;;;;;;;3.60;3.30;;;;;;;;;;5015626;28;20184;-82
2021/12/13 02:45:35;;;;;;;3.92;3.53;;;;;;;;;;5015616;28;20197;-83
2021/12/13 02:48:10;;;;;;;6.57;5.88;;;;;;;;;;5014896;28;20223;-83
2021/12/13 02:50:47;;;;;;;5.80;5.20;;;;;;;;;;5017879;28;20827;-83
2021/12/13 02:53:22;;;;;;;6.55;5.95;;;;;;;;;;5019111;28;20210;-83
2021/12/13 02:55:50;;;;;;;5.35;4.85;;;;;;;;;;5018294;28;20199;-83
2021/12/13 02:58:23;;;;;;;4.68;4.28;;;;;;;;;;4999057;28;20214;-83
2021/12/13 03:01:00;;;;;;;5.38;4.88;;;;;;;;;;4999356;28;20191;-83
2021/12/13 03:03:32;;;;;;;6.30;5.70;;;;;;;;;;4998608;28;20200;-82
2021/12/13 03:06:05;;;;;;;8.93;8.02;;;;;;;;;;4998992;28;20195;-82
2021/12/13 03:08:38;;;;;;;9.93;8.50;;;;;;;;;;4998881;28;20226;-83
2021/12/13 03:11:21;;;;;;;9.48;8.52;;;;;;;;;;5017470;28;20202;-82
2021/12/13 03:13:50;;;;;;;7.00;6.30;;;;;;;;;;5018997;28;20206;-83
2021/12/13 03:16:20;;;;;;;7.13;6.43;;;;;;;;;;5018847;28;20669;-83
2021/12/13 03:18:59;;;;;;;5.82;5.32;;;;;;;;;;5018561;28;20227;-83
2021/12/13 03:22:12;;;;;;;4.07;3.70;;;;;;;;;;5018247;28;20621;-83
2021/12/13 03:24:52;;;;;;;6.18;5.63;;;;;;;;;;5017406;28;20187;-83
2021/12/13 03:27:33;;;;;;;5.45;4.95;;;;;;;;;;5017257;28;20202;-83
2021/12/13 03:30:08;;;;;;;5.25;4.85;;;;;;;;;;5018365;28;20674;-82
2021/12/13 03:32:41;;;;;;;5.32;4.82;;;;;;;;;;5018269;28;20209;-83
2021/12/13 03:35:16;;;;;;;6.15;5.53;;;;;;;;;;5017822;28;20218;-83
2021/12/13 03:37:45;;;;;;;6.78;6.10;;;;;;;;;;5018236;28;20190;-83
2021/12/13 03:40:19;;;;;;;4.60;4.20;;;;;;;;;;5018029;28;20210;-83
2021/12/13 03:42:51;;;;;;;7.13;6.53;;;;;;;;;;5018783;28;20202;-84
2021/12/13 03:45:23;;;;;;;6.90;6.28;;;;;;;;;;5018121;28;20199;-83
2021/12/13 03:47:56;;;;;;;6.13;5.47;;;;;;;;;;5018232;28;20195;-84
2021/12/13 03:50:29;;;;;;;5.40;4.97;;;;;;;;;;5017843;28;20264;-83
2021/12/13 03:53:09;;;;;;;6.63;6.03;;;;;;;;;;5018119;28;20211;-83
2021/12/13 03:55:39;;;;;;;7.90;7.10;;;;;;;;;;5016925;28;20199;-83
2021/12/13 03:58:11;;;;;;;9.15;8.25;;;;;;;;;;5017650;28;20188;-82
2021/12/13 04:00:47;;;;;;;5.78;5.25;;;;;;;;;;5016616;28;20190;-84
2021/12/13 04:03:18;;;;;;;5.38;4.88;;;;;;;;;;5018228;28;20194;-83
2021/12/13 04:05:47;;;;;;;5.82;5.32;;;;;;;;;;5018096;28;20211;-82
2021/12/13 04:08:17;;;;;;;4.32;3.92;;;;;;;;;;5017158;28;20563;-82
2021/12/13 04:10:51;;;;;;;4.40;4.00;;;;;;;;;;5017480;28;20196;-83
2021/12/13 04:13:22;;;;;;;5.75;5.25;;;;;;;;;;5017606;28;20207;-83
2021/12/13 04:16:02;;;;;;;7.43;6.72;;;;;;;;;;5017223;28;20210;-82
2021/12/13 04:19:06;;;;;;;7.85;7.05;;;;;;;;;;5016991;28;20713;-83
2021/12/13 04:21:48;;;;;;;6.80;6.18;;;;;;;;;;5016695;28;20230;-82
2021/12/13 04:24:21;;;;;;;7.20;6.10;;;;;;;;;;5016818;28;20199;-82
2021/12/13 04:26:55;;;;;;;5.95;5.35;;;;;;;;;;5017002;28;20188;-83
2021/12/13 04:29:27;;;;;;;7.38;6.68;;;;;;;;;;5017156;28;20231;-83
2021/12/13 04:31:56;;;;;;;7.70;6.90;;;;;;;;;;5016698;28;20646;-84
2021/12/13 04:34:27;;;;;;;6.10;5.50;;;;;;;;;;5017309;28;20214;-84
2021/12/13 04:36:58;;;;;;;8.43;7.63;;;;;;;;;;5016953;28;20198;-84
2021/12/13 04:39:32;;;;;;;7.32;6.35;;;;;;;;;;5016991;28;20218;-84
2021/12/13 04:42:06;;;;;;;7.32;6.63;;;;;;;;;;5017129;28;20194;-82
2021/12/13 04:44:38;;;;;;;6.40;5.80;;;;;;;;;;5016610;28;20210;-83
2021/12/13 04:47:09;;;;;;;6.10;5.55;;;;;;;;;;5016933;28;20207;-83
2021/12/13 04:49:42;;;;;;;6.13;5.57;;;;;;;;;;5016779;28;20235;-83
2021/12/13 04:52:15;;;;;;;7.20;6.50;;;;;;;;;;5016746;28;20584;-82
2021/12/13 04:54:47;;;;;;;5.65;5.03;;;;;;;;;;5016794;28;20581;-82
2021/12/13 04:57:18;;;;;;;7.70;6.75;;;;;;;;;;5015377;28;20207;-83
2021/12/13 04:59:52;;;;;;;5.88;5.28;;;;;;;;;;5016516;28;20812;-83
2021/12/13 05:02:21;;;;;;;5.20;4.80;;;;;;;;;;5016177;28;20645;-83
2021/12/13 05:04:54;;;;;;;5.97;5.45;;;;;;;;;;5016919;28;20199;-82
2021/12/13 05:07:22;;;;;;;5.97;5.38;;;;;;;;;;4996405;28;20236;-83
2021/12/13 05:09:49;;;;;;;6.82;5.68;;;;;;;;;;4996712;28;20220;-83
2021/12/13 05:12:25;;;;;;;8.70;7.05;;;;;;;;;;4999783;28;20195;-83
2021/12/13 05:14:56;;;;;;;6.68;6.03;;;;;;;;;;5015883;28;20226;-82
2021/12/13 05:17:28;;;;;;;9.13;6.60;;;;;;;;;;5015765;28;20569;-83
2021/12/13 05:20:00;;;;;;;6.20;5.60;;;;;;;;;;5015706;28;20713;-82
2021/12/13 05:22:27;;;;;;;7.28;6.57;;;;;;;;;;5016698;28;20213;-83
2021/12/13 05:25:00;;;;;;;8.60;7.45;;;;;;;;;;5016278;28;20203;-82
2021/12/13 05:27:33;;;;;;;7.47;6.50;;;;;;;;;;5016403;28;20190;-83
2021/12/13 05:30:13;;;;;;;5.68;4.90;;;;;;;;;;5016195;28;20222;-83
2021/12/13 05:32:47;;;;;;;5.95;5.32;;;;;;;;;;5015966;28;20191;-82
2021/12/13 05:35:21;;;;;;;6.93;5.95;;;;;;;;;;5016225;28;20577;-82
2021/12/13 05:37:50;;;;;;;7.60;6.88;;;;;;;;;;5016193;28;20265;-82
2021/12/13 05:40:22;;;;;;;5.43;4.93;;;;;;;;;;5015898;28;20358;-83
2021/12/13 05:42:54;;;;;;;7.40;6.63;;;;;;;;;;5016011;28;20198;-83
2021/12/13 05:45:41;;;;;;;5.50;5.00;;;;;;;;;;5017014;28;20187;-82
2021/12/13 05:48:12;;;;;;;6.15;5.57;;;;;;;;;;5017073;28;20625;-82
2021/12/13 05:50:43;;;;;;;6.00;5.43;;;;;;;;;;5015744;28;20234;-83
2021/12/13 05:53:14;;;;;;;4.65;4.15;;;;;;;;;;5015567;28;20187;-83
2021/12/13 05:55:58;;;;;;;4.93;4.47;;;;;;;;;;5016027;28;20214;-83
2021/12/13 05:58:39;;;;;;;4.22;3.83;;;;;;;;;;5015123;28;20592;-83
2021/12/13 06:01:12;;;;;;;6.00;5.43;;;;;;;;;;5015667;28;20189;-83
2021/12/13 06:03:45;;;;;;;4.60;4.20;;;;;;;;;;5015747;28;20580;-84
2021/12/13 06:06:16;;;;;;;3.70;3.40;;;;;;;;;;5015320;28;20579;-83
2021/12/13 06:08:48;;;;;;;3.80;3.50;;;;;;;;;;5015176;28;20219;-83
2021/12/13 06:11:20;;;;;;;4.40;4.00;;;;;;;;;;5015410;28;20199;-84
2021/12/13 06:14:03;;;;;;;4.25;3.85;;;;;;;;;;5016022;28;20187;-84
2021/12/13 06:16:48;;;;;;;6.30;5.70;;;;;;;;;;5015519;28;20554;-84
2021/12/13 06:19:28;;;;;;;5.00;4.40;;;;;;;;;;5015727;28;20223;-84
2021/12/13 06:22:11;;;;;;;4.45;4.03;;;;;;;;;;5015530;28;20203;-83
2021/12/13 06:24:43;;;;;;;5.32;4.90;;;;;;;;;;5017703;28;20270;-83
2021/12/13 06:27:18;;;;;;;4.50;4.10;;;;;;;;;;5019990;28;20602;-83
2021/12/13 06:30:06;;;;;;;4.20;3.80;;;;;;;;;;4999671;28;20221;-83
2021/12/13 06:32:50;;;;;;;6.40;5.13;;;;;;;;;;4999636;28;20203;-82
2021/12/13 06:35:41;;;;;;;6.43;5.60;;;;;;;;;;4999441;28;20212;-83
2021/12/13 06:38:36;;;;;;;4.65;4.30;;;;;;;;;;4999602;28;20188;-83
2021/12/13 06:41:11;;;;;;;3.67;3.38;;;;;;;;;;5000579;28;20187;-84
2021/12/13 06:43:43;;;;;;;4.03;3.72;;;;;;;;;;5018819;28;20703;-83
2021/12/13 06:46:33;;;;;;;5.82;5.22;;;;;;;;;;5019754;28;20622;-84
2021/12/13 06:49:11;;;;;;;6.15;5.47;;;;;;;;;;4998853;28;20238;-83
2021/12/13 06:51:48;;;;;;;6.40;5.78;;;;;;;;;;4999276;28;20195;-82
2021/12/13 06:54:22;;;;;;;5.60;5.00;;;;;;;;;;4999254;28;20207;-81
2021/12/13 06:56:59;;;;;;;6.38;5.78;;;;;;;;;;4998813;28;20211;-82
2021/12/13 06:59:31;;;;;;;5.57;4.97;;;;;;;;;;5017109;28;20221;-82
2021/12/13 07:02:11;;;;;;;4.35;3.97;;;;;;;;;;5018416;28;20191;-82
2021/12/13 07:04:53;;;;;;;6.05;5.30;;;;;;;;;;5017968;28;20199;-82
2021/12/13 07:07:26;;;;;;;5.25;4.72;;;;;;;;;;5012762;28;20207;-82
2021/12/13 07:09:58;;;;;;;5.25;4.75;;;;;;;;;;4998580;28;20235;-85
2021/12/13 07:12:28;;;;;;;3.95;3.63;;;;;;;;;;4998581;28;20565;-81
2021/12/13 07:14:56;;;;;;;4.43;4.03;;;;;;;;;;4997529;28;20204;-81
2021/12/13 07:17:30;;;;;;;4.70;4.30;;;;;;;;;;5011676;28;20548;-81
2021/12/13 07:20:01;;;;;;;4.30;3.90;;;;;;;;;;5017644;28;20214;-81
2021/12/13 07:22:32;;;;;;;3.78;3.45;;;;;;;;;;5017032;28;20179;-81
2021/12/13 07:25:10;;;;;;;4.60;4.20;;;;;;;;;;5018892;28;20194;-82
2021/12/13 07:27:44;;;;;;;5.07;4.45;;;;;;;;;;5019805;28;20198;-82
2021/12/13 07:30:15;;;;;;;6.10;5.50;;;;;;;;;;5020538;28;20223;-84
2021/12/13 07:32:52;;;;;;;8.85;7.55;;;;;;;;;;5020011;28;20229;-84
2021/12/13 07:35:24;;;;;;;5.65;4.82;;;;;;;;;;5019034;28;20223;-83
2021/12/13 07:37:54;;;;;;;5.00;4.43;;;;;;;;;;5014090;28;20206;-84
2021/12/13 07:40:37;;;;;;;5.47;4.97;;;;;;;;;;5009236;28;20288;-84
2021/12/13 07:43:17;;;;;;;4.63;4.22;;;;;;;;;;5005785;28;20199;-82
2021/12/13 07:45:58;;;;;;;6.10;5.50;;;;;;;;;;5013373;28;20195;-84
2021/12/13 07:48:31;;;;;;;5.88;5.30;;;;;;;;;;5001316;28;20215;-83
2021/12/13 07:51:13;;;;;;;5.55;5.05;;;;;;;;;;5004806;28;20223;-84
2021/12/13 07:53:49;;;;;;;3.90;3.53;;;;;;;;;;5005126;28;21351;-82
2021/12/13 07:56:24;;;;;;;4.00;3.70;;;;;;;;;;5007029;28;20218;-84
2021/12/13 07:59:00;;;;;;;4.40;4.03;;;;;;;;;;5006450;28;20214;-83
2021/12/13 08:01:32;;;;;;;4.13;3.58;;;;;;;;;;5004003;28;20188;-83
2021/12/13 08:04:07;;;;;;;4.50;4.05;;;;;;;;;;5005628;28;20194;-82
2021/12/13 08:06:39;;;;;;;5.63;5.07;;;;;;;;;;5019753;28;20186;-84
2021/12/13 08:09:12;;;;;;;3.47;3.17;;;;;;;;;;5007718;28;20223;-83
2021/12/13 08:11:46;;;;;;;3.42;3.15;;;;;;;;;;5007859;28;20188;-83
2021/12/13 08:14:15;;;;;;;3.25;2.95;;;;;;;;;;5006208;28;20193;-83
2021/12/13 08:16:46;;;;;;;3.67;2.85;;;;;;;;;;5007524;28;20596;-83
2021/12/13 08:19:20;;;;;;;3.72;3.42;;;;;;;;;;5020628;28;20587;-83
2021/12/13 08:21:56;;;;;;;6.13;5.53;;;;;;;;;;5016643;28;20660;-82
2021/12/13 08:24:35;;;;;;;4.40;3.80;;;;;;;;;;5015163;28;20183;-83
2021/12/13 08:27:10;;;;;;;3.92;3.53;;;;;;;;;;5017476;28;20187;-83
2021/12/13 08:29:40;;;;;;;4.90;4.50;;;;;;;;;;5008625;28;20225;-83
2021/12/13 08:32:15;;;;;;;4.55;4.15;;;;;;;;;;5011653;28;20284;-84
2021/12/13 08:34:48;;;;;;;3.53;3.22;;;;;;;;;;5009582;28;20200;-84
2021/12/13 08:37:23;;;;;;;3.67;3.38;;;;;;;;;;5009580;28;20670;-83
2021/12/13 08:39:58;;;;;;;3.60;3.28;;;;;;;;;;4999166;28;20603;-83
2021/12/13 08:42:29;;;;;;;4.28;3.88;;;;;;;;;;4997732;28;20195;-83
2021/12/13 08:45:06;;;;;;;3.13;2.83;;;;;;;;;;5000531;28;20276;-82
2021/12/13 08:47:41;;;;;;;5.07;4.63;;;;;;;;;;5007569;28;20200;-84
2021/12/13 08:50:17;;;;;;;3.85;3.55;;;;;;;;;;5003913;28;20231;-84
2021/12/13 08:52:48;;;;;;;5.63;5.13;;;;;;;;;;5014281;28;20213;-83
2021/12/13 08:55:26;;;;;;;4.50;4.10;;;;;;;;;;5018136;28;20191;-84
2021/12/13 08:58:00;;;;;;;7.13;6.22;;;;;;;;;;5018185;28;20202;-83
2021/12/13 09:00:41;;;;;;;8.60;6.80;;;;;;;;;;5017438;28;20229;-84
2021/12/13 09:03:25;;;;;;;5.63;5.10;;;;;;;;;;5008756;28;20214;-84
2021/12/13 09:06:12;;;;;;;5.20;4.70;;;;;;;;;;5016426;28;20183;-82
2021/12/13 09:08:45;;;;;;;5.20;4.70;;;;;;;;;;5016378;28;20225;-83
2021/12/13 09:11:22;;;;;;;7.20;6.53;;;;;;;;;;5016604;28;20193;-82
2021/12/13 09:13:57;;;;;;;8.02;7.07;;;;;;;;;;5017095;28;20203;-84
2021/12/13 09:16:42;;;;;;;7.97;7.18;;;;;;;;;;5016721;28;20229;-84
2021/12/13 09:19:18;;;;;;;8.52;7.72;;;;;;;;;;5007296;28;20251;-84
2021/12/13 09:22:00;;;;;;;8.57;7.70;;;;;;;;;;4997108;28;20207;-84
2021/12/13 09:24:36;;;;;;;6.97;6.30;;;;;;;;;;5007957;28;20195;-84
2021/12/13 09:27:33;;;;;;;6.72;6.03;;;;;;;;;;5015860;28;20197;-84
2021/12/13 09:30:21;;;;;;;6.05;5.43;;;;;;;;;;5000041;28;20220;-85
2021/12/13 09:32:54;;;;;;;4.95;4.43;;;;;;;;;;5003119;28;20545;-85
2021/12/13 09:35:29;;;;;;;5.82;5.22;;;;;;;;;;5016690;28;20584;-84
2021/12/13 09:38:20;;;;;;;5.13;4.63;;;;;;;;;;4996838;28;20207;-84
2021/12/13 09:40:53;;;;;;;4.88;4.47;;;;;;;;;;5004660;28;20198;-84
2021/12/13 09:43:22;;;;;;;8.80;7.88;;;;;;;;;;5014210;28;20191;-84
2021/12/13 09:45:54;;;;;;;9.25;8.25;;;;;;;;;;5023720;28;20190;-84
2021/12/13 09:48:27;;;;;;;9.68;7.32;;;;;;;;;;5037299;28;20178;-85
2021/12/13 09:51:00;;;;;;;4.80;4.40;;;;;;;;;;5036191;28;20796;-84
2021/12/13 09:53:34;;;;;;;6.88;6.05;;;;;;;;;;5027104;28;20207;-86
2021/12/13 09:56:07;;;;;;;4.75;4.30;;;;;;;;;;5016641;28;20190;-85
2021/12/13 09:58:43;;;;;;;4.65;4.25;;;;;;;;;;5020193;28;20229;-84
2021/12/13 10:01:16;;;;;;;5.72;5.00;;;;;;;;;;5023369;28;20191;-84
2021/12/13 10:03:54;;;;;;;5.53;5.03;;;;;;;;;;5014317;28;20539;-82
2021/12/13 10:06:26;;;;;;;4.45;4.05;;;;;;;;;;5007087;28;20182;-82
2021/12/13 10:09:03;;;;;;;5.50;5.00;;;;;;;;;;5022385;28;20231;-82
2021/12/13 10:11:37;;;;;;;5.68;4.70;;;;;;;;;;5016596;28;20195;-82
2021/12/13 10:14:06;;;;;;;5.13;4.05;;;;;;;;;;5016479;28;20199;-80
2021/12/13 10:16:37;;;;;;;6.97;5.78;;;;;;;;;;5014177;28;20592;-81
2021/12/13 10:19:09;;;;;;;8.82;6.43;;;;;;;;;;5011270;28;20230;-81
2021/12/13 10:21:41;;;;;;;6.65;5.40;;;;;;;;;;5020745;28;20187;-81
2021/12/13 10:24:15;;;;;;;12.57;8.93;;;;;;;;;;5020610;28;20206;-81
2021/12/13 10:26:45;;;;;;;17.83;8.73;;;;;;;;;;5015616;28;20191;-80
2021/12/13 10:29:17;;;;;;;12.50;8.82;;;;;;;;;;5008826;28;20230;-80
2021/12/13 10:31:49;;;;;;;7.80;5.70;;;;;;;;;;5004775;28;20191;-80
2021/12/13 10:34:21;;;;;;;7.25;5.35;;;;;;;;;;5012442;28;20654;-80
2021/12/13 10:36:51;;;;;;;9.15;6.22;;;;;;;;;;5014578;28;20245;-81
2021/12/13 10:39:23;;;;;;;13.55;9.90;;;;;;;;;;5014482;28;20223;-80
2021/12/13 10:41:55;;;;;;;8.85;7.82;;;;;;;;;;5014644;28;20200;-80
2021/12/13 10:44:28;;;;;;;13.63;8.77;;;;;;;;;;5020066;28;20202;-81
2021/12/13 10:47:01;;;;;;;10.88;9.25;;;;;;;;;;5011419;28;20278;-81
2021/12/13 10:49:30;;;;;;;11.75;9.23;;;;;;;;;;5007978;28;20222;-83
2021/12/13 10:52:02;;;;;;;10.95;9.05;;;;;;;;;;5006201;28;20642;-83
2021/12/13 10:54:35;;;;;;;7.38;5.90;;;;;;;;;;5020796;28;20201;-83
2021/12/13 10:57:08;;;;;;;7.00;5.80;;;;;;;;;;5011929;28;20207;-83
2021/12/13 10:59:37;;;;;;;5.32;4.82;;;;;;;;;;5017851;28;20211;-81
2021/12/13 11:02:08;;;;;;;5.30;4.10;;;;;;;;;;5010903;28;20565;-82
2021/12/13 11:04:38;;;;;;;7.15;6.45;;;;;;;;;;5023051;28;20571;-81
2021/12/13 11:07:10;;;;;;;4.43;4.03;;;;;;;;;;5019156;28;20199;-82
2021/12/13 11:09:42;;;;;;;3.90;3.60;;;;;;;;;;5018803;28;20211;-81
2021/12/13 11:12:14;;;;;;;4.13;3.65;;;;;;;;;;4998053;28;20580;-81
2021/12/13 11:14:44;;;;;;;7.55;6.78;;;;;;;;;;4998665;28;20188;-81
2021/12/13 11:17:17;;;;;;;11.77;9.95;;;;;;;;;;5011051;28;20214;-81
2021/12/13 11:19:49;;;;;;;8.90;7.93;;;;;;;;;;5017637;28;20222;-82
2021/12/13 11:22:20;;;;;;;5.07;4.57;;;;;;;;;;5018191;28;20210;-82
2021/12/13 11:24:55;;;;;;;6.53;5.93;;;;;;;;;;5018061;28;20200;-82
2021/12/13 11:27:27;;;;;;;5.43;4.57;;;;;;;;;;4998585;28;20187;-82
2021/12/13 11:29:56;;;;;;;4.68;4.18;;;;;;;;;;5000084;28;20216;-82
2021/12/13 11:33:20;;;;;;;3.70;3.40;;;;;;;;;;4994592;28;20196;-82
2021/12/13 11:37:01;;;;;;;5.05;4.55;;;;;;;;;;4998365;28;20238;-82
2021/12/13 11:40:05;;;;;;;5.03;4.53;;;;;;;;;;4973564;28;20231;-82
2021/12/13 11:43:03;;;;;;;7.65;6.53;;;;;;;;;;4998005;28;20697;-82
2021/12/13 11:45:54;;;;;;;4.95;4.40;;;;;;;;;;4998273;28;20686;-82
2021/12/13 11:49:13;;;;;;;4.35;3.95;;;;;;;;;;4998109;28;20240;-82
2021/12/13 11:52:11;;;;;;;4.53;4.18;;;;;;;;;;4993952;28;20282;-82
2021/12/13 11:55:23;;;;;;;4.57;4.18;;;;;;;;;;4997815;28;20195;-83
2021/12/13 11:58:28;;;;;;;4.13;3.72;;;;;;;;;;4997497;28;20231;-83
2021/12/13 12:01:47;;;;;;;3.13;2.83;;;;;;;;;;4997671;28;20214;-82
2021/12/13 12:05:05;;;;;;;3.50;3.20;;;;;;;;;;4997790;28;20233;-83
2021/12/13 12:08:07;;;;;;;3.53;3.20;;;;;;;;;;4997771;28;20685;-82
2021/12/13 12:11:00;;;;;;;4.60;2.75;;;;;;;;;;4997733;28;20203;-83
2021/12/13 12:13:36;;;;;;;2.50;2.30;;;;;;;;;;4997196;28;20674;-82
2021/12/13 12:16:07;;;;;;;2.10;1.90;;;;;;;;;;4997251;28;20207;-83
2021/12/13 12:18:38;;;;;;;1.90;1.80;;;;;;;;;;4996940;28;20250;-83
2021/12/13 12:21:44;;;;;;;1.23;1.23;;;;;;;;;;4996615;28;20587;-82
2021/12/13 12:24:15;;;;;;;3.90;3.60;;;;;;;;;;4996882;28;20203;-83
2021/12/13 12:26:50;;;;;;;9.10;7.13;;;;;;;;;;4996686;28;20279;-82
2021/12/13 12:29:21;;;;;;;7.35;6.43;;;;;;;;;;4997054;28;20250;-83
2021/12/13 12:31:56;;;;;;;6.40;5.80;;;;;;;;;;4996920;28;20569;-82
2021/12/13 12:34:24;;;;;;;5.68;5.18;;;;;;;;;;4996727;28;20202;-83
2021/12/13 12:37:41;;;;;;;5.00;4.60;;;;;;;;;;4997043;28;20180;-83
2021/12/13 12:40:26;;;;;;;4.97;4.22;;;;;;;;;;4997084;28;20251;-83
2021/12/13 12:42:57;;;;;;;5.45;4.95;;;;;;;;;;4996931;28;20669;-83
2021/12/13 12:45:30;;;;;;;5.18;4.68;;;;;;;;;;4996742;28;20212;-83
2021/12/13 12:48:15;;;;;;;5.57;4.68;;;;;;;;;;4996500;28;20555;-83
2021/12/13 12:51:07;;;;;;;5.68;4.97;;;;;;;;;;4994801;28;20232;-82
2021/12/13 12:53:44;;;;;;;4.63;4.22;;;;;;;;;;4996704;28;20200;-82
2021/12/13 12:56:18;;;;;;;3.67;3.38;;;;;;;;;;4996324;28;20203;-83
2021/12/13 12:58:59;;;;;;;2.60;2.40;;;;;;;;;;4996410;28;20228;-82
2021/12/13 13:01:31;;;;;;;1.70;1.60;;;;;;;;;;4996682;28;20196;-82
2021/12/13 13:04:14;;;;;;;1.75;1.65;;;;;;;;;;4996591;28;20204;-83
2021/12/13 13:06:56;;;;;;;3.05;1.58;;;;;;;;;;4996825;28;20199;-83
2021/12/13 13:09:33;;;;;;;1.52;1.42;;;;;;;;;;4996336;28;20223;-83
2021/12/13 13:12:01;;;;;;;1.27;1.20;;;;;;;;;;4996470;28;20203;-82
2021/12/13 13:14:30;;;;;;;1.10;1.10;;;;;;;;;;4996113;28;20666;-82
2021/12/13 13:17:02;;;;;;;3.22;2.92;;;;;;;;;;4996063;28;20666;-82
2021/12/13 13:19:36;;;;;;;2.35;2.22;;;;;;;;;;4996224;28;20234;-82
2021/12/13 13:22:08;;;;;;;2.03;1.90;;;;;;;;;;4996248;28;20584;-82
2021/12/13 13:24:40;;;;;;;11.07;9.30;;;;;;;;;;4996906;28;20654;-82
2021/12/13 13:27:08;;;;;;;6.28;5.68;;;;;;;;;;4996443;28;20202;-82
2021/12/13 13:29:38;;;;;;;4.93;4.43;;;;;;;;;;4996319;28;20228;-82
2021/12/13 13:32:10;;;;;;;5.35;3.50;;;;;;;;;;4996027;28;20204;-82
2021/12/13 13:34:40;;;;;;;3.83;3.50;;;;;;;;;;4995880;28;20204;-82
2021/12/13 13:37:14;;;;;;;3.38;2.95;;;;;;;;;;4995988;28;20207;-82
2021/12/13 13:39:45;;;;;;;1.83;1.73;;;;;;;;;;4996107;28;20235;-82
2021/12/13 13:42:21;;;;;;;4.38;2.30;;;;;;;;;;4995890;28;20682;-83
2021/12/13 13:44:54;;;;;;;1.80;1.67;;;;;;;;;;4995724;28;20249;-82
2021/12/13 13:47:27;;;;;;;1.58;1.48;;;;;;;;;;4996081;28;20563;-82
2021/12/13 13:49:57;;;;;;;1.92;1.80;;;;;;;;;;4995476;28;20702;-82
2021/12/13 13:52:27;;;;;;;1.30;1.20;;;;;;;;;;4996125;28;20195;-83
2021/12/13 13:55:00;;;;;;;2.45;2.17;;;;;;;;;;4995966;28;20234;-83
2021/12/13 13:57:31;;;;;;;1.67;1.50;;;;;;;;;;4996053;28;20212;-83
2021/12/13 14:00:01;;;;;;;1.58;1.48;;;;;;;;;;4995660;28;20227;-83
2021/12/13 14:02:33;;;;;;;2.35;2.15;;;;;;;;;;4995712;28;20199;-83
2021/12/13 14:05:06;;;;;;;1.13;1.13;;;;;;;;;;4995449;28;20211;-83
2021/12/13 14:07:36;;;;;;;1.50;1.40;;;;;;;;;;4995679;28;20200;-82
2021/12/13 14:10:10;;;;;;;1.52;1.42;;;;;;;;;;4995728;28;20223;-82
2021/12/13 14:12:41;;;;;;;1.60;1.50;;;;;;;;;;4995785;28;20204;-82
2021/12/13 14:15:14;;;;;;;1.20;1.20;;;;;;;;;;4995501;28;20199;-81
2021/12/13 14:17:46;;;;;;;1.63;1.52;;;;;;;;;;4995706;28;20673;-81
2021/12/13 14:20:29;;;;;;;1.80;1.63;;;;;;;;;;4995669;28;20257;-82
2021/12/13 14:23:01;;;;;;;1.58;1.48;;;;;;;;;;4995513;28;20212;-82
2021/12/13 14:25:36;;;;;;;1.35;1.27;;;;;;;;;;4995429;28;20204;-82
2021/12/13 14:28:07;;;;;;;3.20;2.90;;;;;;;;;;4995148;28;20199;-82
2021/12/13 14:30:38;;;;;;;2.65;2.45;;;;;;;;;;4995478;28;20596;-82
2021/12/13 14:33:24;;;;;;;2.15;2.00;;;;;;;;;;4995416;28;20188;-82
2021/12/13 14:36:05;;;;;;;11.70;9.07;;;;;;;;;;4995970;28;20208;-82
2021/12/13 14:38:33;;;;;;;11.40;7.95;;;;;;;;;;4995680;28;20595;-82
2021/12/13 14:41:06;;;;;;;6.97;4.85;;;;;;;;;;4995649;28;20581;-82
2021/12/13 14:43:37;;;;;;;4.15;3.53;;;;;;;;;;4995521;28;20234;-82
2021/12/13 14:46:15;;;;;;;3.00;2.70;;;;;;;;;;4997890;28;20200;-82
2021/12/13 14:48:43;;;;;;;2.00;1.80;;;;;;;;;;4999186;28;20306;-82
2021/12/13 14:51:14;;;;;;;2.42;2.22;;;;;;;;;;4998842;28;20203;-82
2021/12/13 14:53:43;;;;;;;1.80;1.70;;;;;;;;;;4998762;28;20200;-82
2021/12/13 14:56:18;;;;;;;2.40;2.20;;;;;;;;;;4998980;28;20327;-83
2021/12/13 14:58:52;;;;;;;2.38;2.17;;;;;;;;;;4999183;28;20223;-82
2021/12/13 15:01:27;;;;;;;2.83;2.63;;;;;;;;;;4999148;28;20203;-84
2021/12/13 15:04:04;;;;;;;1.98;1.80;;;;;;;;;;4998966;28;20199;-84
2021/12/13 15:06:33;;;;;;;2.38;2.17;;;;;;;;;;4999357;28;20588;-83
2021/12/13 15:09:10;;;;;;;2.47;2.28;;;;;;;;;;4998764;28;20233;-84
2021/12/13 15:11:44;;;;;;;2.40;2.20;;;;;;;;;;4999235;28;20207;-84
2021/12/13 15:14:19;;;;;;;2.50;2.30;;;;;;;;;;4999351;28;20207;-83
2021/12/13 15:16:49;;;;;;;3.15;1.83;;;;;;;;;;4999411;28;20199;-84
2021/12/13 15:19:20;;;;;;;2.30;2.10;;;;;;;;;;4999040;28;20255;-84
2021/12/13 15:21:52;;;;;;;2.13;1.92;;;;;;;;;;4998676;28;20211;-84
2021/12/13 15:24:20;;;;;;;1.77;1.67;;;;;;;;;;4998602;28;20208;-85
2021/12/13 15:26:56;;;;;;;1.70;1.60;;;;;;;;;;4998881;28;20199;-84
2021/12/13 15:29:26;;;;;;;2.30;2.15;;;;;;;;;;4998195;28;20717;-84
2021/12/13 15:32:03;;;;;;;2.50;2.38;;;;;;;;;;4998140;28;20200;-84
2021/12/13 15:34:35;;;;;;;2.88;2.67;;;;;;;;;;4998239;28;20294;-84
2021/12/13 15:37:04;;;;;;;4.60;4.20;;;;;;;;;;4998159;28;20207;-83